• Join FlightAware (Why Join?)
  • Login
  • US Flag 
07:15PM EST


 

Airport Tracker/Info


-or-


 

Live Flight TrackerFlight Track Log ✈ UAL4498 ✈ 19-Jun-2013 ✈ KGSO - KIAD

Flight Track Log - Related Links

Times and Time Zones

All times are in EDT time to prevent confusion due to time zone crossing. See the UAL4498 flight status page for this flight to view local times or setup timezone preferences in your user account.

Time Position Orientation Groundspeed Altitude Reporting Facility
EDT Latitude Longitude Course Direction KTS MPH feet Rate Location/Type
08:04PM 36.1778 -79.8069 58° Northeast 246 283 5,000  Level Washington Center
08:05PM 36.1902 -79.7025 52° Northeast  Level FlightAware Approximate
08:05PM 36.1975 -79.7231 74° East 251 289 7,400  Level Washington Center
08:06PM 36.2404 -79.6176 61° Northeast  Level FlightAware Approximate
08:06PM 36.2356 -79.6428 60° Northeast 257 296 10,500  Level Washington Center
08:07PM 36.2815 -79.5251 61° Northeast  Level FlightAware Approximate
08:07PM 36.2889 -79.5500 54° Northeast 283 326 11,700  Level Washington Center
08:08PM 36.3334 -79.4444 47° Northeast  Level FlightAware Approximate
08:08PM 36.3442 -79.4497 56° Northeast 326 375 13,900  Level Washington Center
08:09PM 36.3854 -79.3626 58° Northeast  Level FlightAware Approximate
08:09PM 36.4042 -79.3417 55° Northeast 357 411 15,900  Level Washington Center
08:10PM 36.4714 -79.2597 44° Northeast 373 429 17,400 1,260 Climbing Washington Center
08:11PM 36.5494 -79.1625 45° Northeast 378 435 18,400 1,140 Climbing Washington Center
08:12PM 36.6400 -79.0606 42° Northeast 390 449 19,800 1,320 Climbing Washington Center
08:13PM 36.7225 -78.9503 47° Northeast 413 475 21,100 1,200 Climbing Washington Center
08:14PM 36.8025 -78.8422 47° Northeast 424 488 22,200 1,080 Climbing Washington Center
08:15PM 36.8828 -78.7314 48° Northeast 424 488 23,300 840 Climbing Washington Center
08:16PM 36.9650 -78.6178 48° Northeast 429 494 24,000 300 Climbing Washington Center
08:17PM 37.0447 -78.5089 47° Northeast 440 506 24,000  Level Washington Center
08:18PM 37.1311 -78.3872 48° Northeast 459 528 24,000  Level Washington Center
08:19PM 37.2236 -78.2731 44° Northeast 459 528 24,000 -240 Level Washington Center
08:20PM 37.3383 -78.1753 34° Northeast 452 520 23,600 -600 Descending Washington Center
08:21PM 37.4275 -78.0972 35° Northeast 447 514 22,800 -900 Descending Washington Center
08:22PM 37.5317 -78.0089 34° Northeast 447 514 21,900 -960 Descending Washington Center
08:23PM 37.6292 -77.9256 34° Northeast 442 509 20,900 -1,020 Descending Washington Center
08:24PM 37.7311 -77.8367 35° Northeast 442 509 19,900 -960 Descending Washington Center
08:25PM 37.8264 -77.7528 35° Northeast 430 495 19,000 -1,680 Descending Washington Center
08:26PM 37.9175 -77.6739 34° Northeast 419 482 16,600 -2,880 Descending Washington Center
08:27PM 38.0064 -77.5972 34° Northeast 397 457 13,300 -2,940 Descending Washington Center
08:28PM 38.0889 -77.5308 32° Northeast 369 425 10,900 -1,680 Descending Washington Center
08:29PM 38.1628 -77.4667 34° Northeast 336 387 10,000 -600 Descending Washington Center
08:30PM 38.2300 -77.4394 18° North 302 348 9,800 -600 Descending Washington Center
08:31PM 38.3047 -77.4517 353° North 260 299 8,900 -960 Descending Washington Center
08:32PM 38.3775 -77.4642 352° North 255 293 7,900 -900 Descending Washington Center
08:33PM 38.4525 -77.4714 356° North 260 299 7,100 -420 Descending Washington Center
08:34PM 38.5256 -77.4706 North 260 299 7,100 -300 Level Washington Center
08:35PM 38.6006 -77.4672 North 255 293 6,500 -840 Descending Washington Center
08:35PM 38.6500 -77.4667 North 257 296 5,900 -1,080 Descending Potomac TRACON
08:36PM 38.7167 -77.4667 360° North 224 258 4,900 -1,260 Descending Potomac TRACON
08:37PM 38.7833 -77.4667 360° North 225 259 3,400 -1,380 Descending Potomac TRACON
08:38PM 38.8333 -77.4667 360° North 224 258 2,200 -1,080 Descending Potomac TRACON
08:39PM 38.9000 -77.4667 360° North 162 186 1,200 -960 Descending Potomac TRACON